Time;durP1;ratioP1;P1;durP2;ratioP2;P2;SDS_P1;SDS_P2;PMS_P1;PMS_P2;Temp;Humidity;BMP_temperature;BMP_pressure;BME280_temperature;BME280_humidity;BME280_pressure;Samples;Min_cycle;Max_cycle;Signal;HPM_P1;HPM_P2
2021/08/29 00:00:04;;;;;;;;;6.75;4.75;;;;;;;;5069117;27;45562;-83
2021/08/29 00:02:29;;;;;;;;;6.75;5.00;;;;;;;;5046725;28;47714;-83
2021/08/29 00:04:55;;;;;;;;;4.00;4.00;;;;;;;;5064920;27;45630;-83
2021/08/29 00:07:20;;;;;;;;;5.67;5.67;;;;;;;;5071041;28;45495;-83
2021/08/29 00:09:45;;;;;;;;;8.00;5.00;;;;;;;;5063251;28;45513;-83
2021/08/29 00:12:11;;;;;;;;;9.50;6.00;;;;;;;;5068077;27;45528;-83
2021/08/29 00:14:36;;;;;;;;;8.25;5.00;;;;;;;;5066976;27;45532;-83
2021/08/29 00:17:01;;;;;;;;;5.00;5.00;;;;;;;;5065539;27;45577;-83
2021/08/29 00:19:27;;;;;;;;;4.25;4.00;;;;;;;;5069453;27;45488;-83
2021/08/29 00:21:52;;;;;;;;;7.00;4.50;;;;;;;;5064984;28;46206;-83
2021/08/29 00:24:17;;;;;;;;;6.33;4.00;;;;;;;;5066028;27;45521;-83
2021/08/29 00:26:42;;;;;;;;;6.67;5.00;;;;;;;;5068843;28;45658;-83
2021/08/29 00:29:07;;;;;;;;;7.00;5.75;;;;;;;;5047108;28;46279;-83
2021/08/29 00:31:33;;;;;;;;;4.33;4.33;;;;;;;;5069903;27;45493;-83
2021/08/29 00:33:58;;;;;;;;;5.00;3.67;;;;;;;;5048198;28;45729;-83
2021/08/29 00:36:23;;;;;;;;;5.00;3.67;;;;;;;;5065976;27;45477;-83
2021/08/29 00:38:48;;;;;;;;;6.00;4.00;;;;;;;;5069164;27;45453;-83
2021/08/29 00:41:14;;;;;;;;;6.00;4.00;;;;;;;;5043887;28;46702;-83
2021/08/29 00:43:39;;;;;;;;;5.00;4.25;;;;;;;;5069661;27;50041;-83
2021/08/29 00:46:06;;;;;;;;;5.00;4.00;;;;;;;;5049514;28;45741;-84
2021/08/29 00:48:31;;;;;;;;;5.00;5.00;;;;;;;;5063725;28;49293;-84
2021/08/29 00:50:56;;;;;;;;;7.75;5.00;;;;;;;;5050518;28;47010;-83
2021/08/29 00:53:21;;;;;;;;;4.00;4.00;;;;;;;;5064580;28;45408;-84
2021/08/29 00:55:48;;;;;;;;;4.50;4.50;;;;;;;;5063339;28;46667;-83
2021/08/29 00:58:13;;;;;;;;;6.25;4.50;;;;;;;;5067749;27;45630;-83
2021/08/29 01:00:43;;;;;;;;;8.25;5.00;;;;;;;;5064732;27;45983;-83
2021/08/29 01:03:16;;;;;;;;;6.00;4.50;;;;;;;;5070981;27;45568;-83
2021/08/29 01:05:46;;;;;;;;;7.75;6.50;;;;;;;;5034718;28;45568;-83
2021/08/29 01:08:15;;;;;;;;;7.00;5.00;;;;;;;;5062424;27;45569;-83
2021/08/29 01:10:41;;;;;;;;;5.25;4.75;;;;;;;;5046931;28;47130;-83
2021/08/29 01:13:09;;;;;;;;;6.50;5.25;;;;;;;;5066555;27;45455;-84
2021/08/29 01:15:34;;;;;;;;;6.00;4.25;;;;;;;;5064614;28;45550;-84
2021/08/29 01:18:00;;;;;;;;;3.25;3.25;;;;;;;;5051211;27;46291;-83
2021/08/29 01:20:36;;;;;;;;;4.50;4.25;;;;;;;;5045372;28;47124;-84
2021/08/29 01:23:02;;;;;;;;;5.75;4.50;;;;;;;;5033885;27;45774;-83
2021/08/29 01:25:31;;;;;;;;;7.75;5.50;;;;;;;;5067703;27;45722;-84
2021/08/29 01:28:11;;;;;;;;;6.75;3.50;;;;;;;;5042770;28;46412;-83
2021/08/29 01:30:37;;;;;;;;;5.50;4.00;;;;;;;;5047572;28;47139;-84
2021/08/29 01:33:02;;;;;;;;;5.25;4.00;;;;;;;;5058370;28;45635;-84
2021/08/29 01:35:27;;;;;;;;;5.25;3.00;;;;;;;;5064910;27;50674;-84
2021/08/29 01:37:53;;;;;;;;;5.00;5.00;;;;;;;;5063515;28;45589;-83
2021/08/29 01:40:20;;;;;;;;;7.50;3.00;;;;;;;;5066783;27;45628;-83
2021/08/29 01:42:45;;;;;;;;;7.25;5.25;;;;;;;;5061254;28;45709;-83
2021/08/29 01:45:11;;;;;;;;;5.50;5.00;;;;;;;;5067142;28;46204;-83
2021/08/29 01:47:37;;;;;;;;;4.00;4.00;;;;;;;;5047101;28;46506;-83
2021/08/29 01:50:03;;;;;;;;;6.00;6.00;;;;;;;;5062538;28;45590;-82
2021/08/29 01:52:28;;;;;;;;;6.25;3.50;;;;;;;;5067691;27;45575;-83
2021/08/29 01:54:53;;;;;;;;;5.75;5.75;;;;;;;;5045105;28;45572;-83
2021/08/29 01:57:19;;;;;;;;;5.75;3.00;;;;;;;;5064747;27;45444;-83
2021/08/29 01:59:44;;;;;;;;;4.50;4.00;;;;;;;;5066960;27;46105;-84
2021/08/29 02:02:10;;;;;;;;;6.75;4.25;;;;;;;;5044413;28;45622;-83
2021/08/29 02:04:36;;;;;;;;;3.50;3.00;;;;;;;;5069030;27;45527;-83
2021/08/29 02:07:04;;;;;;;;;6.00;5.00;;;;;;;;5062921;27;45738;-83
2021/08/29 02:09:31;;;;;;;;;7.25;5.50;;;;;;;;5062403;27;45946;-83
2021/08/29 02:11:56;;;;;;;;;5.50;4.50;;;;;;;;5067357;28;45614;-83
2021/08/29 02:14:25;;;;;;;;;4.67;4.00;;;;;;;;5032847;27;45549;-84
2021/08/29 02:16:50;;;;;;;;;5.75;4.50;;;;;;;;5064090;27;45374;-84
2021/08/29 02:19:29;;;;;;;;;10.50;5.00;;;;;;;;5049493;28;48591;-83
2021/08/29 02:21:55;;;;;;;;;8.50;5.00;;;;;;;;5048330;28;46142;-84
2021/08/29 02:24:21;;;;;;;;;5.75;5.00;;;;;;;;5046445;28;45978;-83
2021/08/29 02:26:47;;;;;;;;;8.25;5.50;;;;;;;;5048418;28;45450;-83
2021/08/29 02:29:13;;;;;;;;;7.75;5.00;;;;;;;;5061803;27;46158;-83
2021/08/29 02:31:38;;;;;;;;;6.75;6.00;;;;;;;;5067758;28;45620;-83
2021/08/29 02:34:03;;;;;;;;;8.25;7.00;;;;;;;;5059190;28;45697;-84
2021/08/29 02:36:30;;;;;;;;;8.50;8.00;;;;;;;;5060318;28;45632;-84
2021/08/29 02:38:55;;;;;;;;;8.00;5.25;;;;;;;;5064781;28;45581;-83
2021/08/29 02:41:22;;;;;;;;;7.00;5.75;;;;;;;;5060355;27;45572;-83
2021/08/29 02:43:48;;;;;;;;;10.50;7.00;;;;;;;;5044068;28;45613;-84
2021/08/29 02:46:13;;;;;;;;;9.75;6.00;;;;;;;;5065192;27;46044;-84
2021/08/29 02:48:44;;;;;;;;;8.25;6.75;;;;;;;;5043029;28;47964;-84
2021/08/29 02:51:10;;;;;;;;;6.50;6.00;;;;;;;;5065024;28;45627;-84
2021/08/29 02:53:35;;;;;;;;;6.25;6.00;;;;;;;;5042865;28;53824;-84
2021/08/29 02:56:02;;;;;;;;;7.25;7.00;;;;;;;;5059939;28;45816;-84
2021/08/29 02:58:27;;;;;;;;;8.75;7.00;;;;;;;;5062058;27;47511;-83
2021/08/29 03:00:52;;;;;;;;;7.50;6.75;;;;;;;;5030055;28;46006;-83
2021/08/29 03:03:18;;;;;;;;;7.50;6.00;;;;;;;;5061893;28;45533;-83
2021/08/29 03:05:43;;;;;;;;;8.75;7.00;;;;;;;;5064032;28;45798;-84
2021/08/29 03:08:09;;;;;;;;;12.00;5.75;;;;;;;;5040926;28;48013;-84
2021/08/29 03:10:34;;;;;;;;;9.25;7.75;;;;;;;;5065337;28;46095;-83
2021/08/29 03:13:00;;;;;;;;;11.00;8.00;;;;;;;;5060596;28;45808;-83
2021/08/29 03:15:25;;;;;;;;;12.50;6.00;;;;;;;;5060337;27;45587;-82
2021/08/29 03:17:51;;;;;;;;;7.50;7.25;;;;;;;;5065388;27;47792;-82
2021/08/29 03:20:16;;;;;;;;;8.00;7.75;;;;;;;;5058836;28;46260;-83
2021/08/29 03:22:43;;;;;;;;;12.00;8.25;;;;;;;;5064514;27;45640;-82
2021/08/29 03:25:08;;;;;;;;;9.50;7.75;;;;;;;;5061907;28;45527;-82
2021/08/29 03:27:34;;;;;;;;;10.75;8.25;;;;;;;;5026719;28;47202;-82
2021/08/29 03:29:59;;;;;;;;;10.75;8.75;;;;;;;;5045170;28;46370;-81
2021/08/29 03:32:25;;;;;;;;;17.00;12.00;;;;;;;;5042672;28;45601;-81
2021/08/29 03:34:53;;;;;;;;;12.25;10.25;;;;;;;;5060248;27;45869;-82
2021/08/29 03:37:18;;;;;;;;;9.25;6.25;;;;;;;;5065028;28;45444;-81
2021/08/29 03:39:44;;;;;;;;;6.75;6.00;;;;;;;;5040937;28;45787;-81
2021/08/29 03:42:09;;;;;;;;;8.00;7.75;;;;;;;;5046600;28;45458;-81
2021/08/29 03:44:34;;;;;;;;;11.25;9.00;;;;;;;;5062214;28;46833;-81
2021/08/29 03:46:59;;;;;;;;;9.25;9.00;;;;;;;;5062908;28;46289;-82
2021/08/29 03:49:25;;;;;;;;;10.50;9.25;;;;;;;;5066952;28;45447;-82
2021/08/29 03:51:51;;;;;;;;;11.75;8.25;;;;;;;;5035645;28;45637;-82
2021/08/29 03:54:17;;;;;;;;;9.25;8.00;;;;;;;;5046266;27;45714;-82
2021/08/29 03:56:42;;;;;;;;;8.75;8.00;;;;;;;;5067236;27;46742;-82
2021/08/29 03:59:08;;;;;;;;;14.25;7.25;;;;;;;;5061569;27;45481;-82
2021/08/29 04:01:33;;;;;;;;;8.75;7.75;;;;;;;;5034629;28;45652;-82
2021/08/29 04:03:58;;;;;;;;;12.00;8.00;;;;;;;;5063192;27;45586;-81
2021/08/29 04:06:28;;;;;;;;;13.50;7.00;;;;;;;;5063757;27;46186;-81
2021/08/29 04:08:54;;;;;;;;;9.25;7.00;;;;;;;;5067652;27;47573;-81
2021/08/29 04:11:29;;;;;;;;;9.75;8.25;;;;;;;;5046379;28;45825;-81
2021/08/29 04:13:56;;;;;;;;;7.00;7.00;;;;;;;;5063550;27;45575;-82
2021/08/29 04:16:22;;;;;;;;;10.25;7.00;;;;;;;;5067189;27;45535;-82
2021/08/29 04:18:48;;;;;;;;;11.75;8.25;;;;;;;;5044785;28;46001;-81
2021/08/29 04:21:14;;;;;;;;;7.50;6.50;;;;;;;;5066021;27;45413;-82
2021/08/29 04:23:39;;;;;;;;;10.00;7.00;;;;;;;;5064967;27;45525;-81
2021/08/29 04:26:06;;;;;;;;;8.00;7.25;;;;;;;;5061787;27;46576;-80
2021/08/29 04:28:31;;;;;;;;;8.00;7.00;;;;;;;;5067631;28;45367;-81
2021/08/29 04:31:00;;;;;;;;;12.75;8.25;;;;;;;;5044109;28;45516;-81
2021/08/29 04:33:26;;;;;;;;;12.00;9.00;;;;;;;;5045287;27;45491;-82
2021/08/29 04:35:51;;;;;;;;;10.25;9.00;;;;;;;;5067031;28;45695;-81
2021/08/29 04:38:17;;;;;;;;;8.25;7.50;;;;;;;;5060779;28;45627;-82
2021/08/29 04:40:42;;;;;;;;;10.75;9.50;;;;;;;;5034110;28;45479;-81
2021/08/29 04:43:07;;;;;;;;;11.00;8.00;;;;;;;;5063142;27;45588;-81
2021/08/29 04:45:32;;;;;;;;;7.25;5.50;;;;;;;;5062342;28;45545;-82
2021/08/29 04:47:58;;;;;;;;;7.33;7.33;;;;;;;;5067335;28;45685;-81
2021/08/29 04:50:23;;;;;;;;;10.50;6.75;;;;;;;;5062246;27;45552;-81
2021/08/29 04:52:48;;;;;;;;;7.00;6.00;;;;;;;;5060597;28;45556;-82
2021/08/29 04:55:13;;;;;;;;;9.67;6.00;;;;;;;;5065204;28;46167;-81
2021/08/29 04:57:38;;;;;;;;;10.00;7.50;;;;;;;;5062053;27;45652;-81
2021/08/29 05:00:04;;;;;;;;;11.67;7.00;;;;;;;;5058812;27;45826;-81
2021/08/29 05:02:30;;;;;;;;;8.50;6.25;;;;;;;;5061352;28;49468;-81
2021/08/29 05:04:55;;;;;;;;;12.75;10.25;;;;;;;;5060384;28;47159;-81
2021/08/29 05:07:20;;;;;;;;;18.00;14.33;;;;;;;;5066744;28;46349;-81
2021/08/29 05:09:45;;;;;;;;;17.00;13.50;;;;;;;;5062282;27;45731;-81
2021/08/29 05:12:11;;;;;;;;;15.67;13.00;;;;;;;;5065356;28;45593;-81
2021/08/29 05:14:36;;;;;;;;;15.00;12.67;;;;;;;;5060510;28;48296;-81
2021/08/29 05:17:01;;;;;;;;;16.33;14.67;;;;;;;;5059423;27;45626;-81
2021/08/29 05:19:26;;;;;;;;;11.25;8.75;;;;;;;;5066141;27;45508;-82
2021/08/29 05:21:51;;;;;;;;;11.67;9.67;;;;;;;;5061096;27;45475;-81
2021/08/29 05:24:17;;;;;;;;;7.33;7.33;;;;;;;;5063608;28;45532;-82
2021/08/29 05:26:42;;;;;;;;;11.33;9.67;;;;;;;;5064882;27;47596;-81
2021/08/29 05:29:07;;;;;;;;;8.67;6.00;;;;;;;;5060889;27;50348;-81
2021/08/29 05:31:32;;;;;;;;;8.25;8.25;;;;;;;;5066262;27;45675;-81
2021/08/29 05:33:58;;;;;;;;;10.33;8.00;;;;;;;;5062420;27;46778;-81
2021/08/29 05:36:23;;;;;;;;;12.00;7.33;;;;;;;;5060397;27;45493;-81
2021/08/29 05:38:48;;;;;;;;;16.75;10.50;;;;;;;;5066931;28;45519;-82
2021/08/29 05:41:13;;;;;;;;;11.33;6.33;;;;;;;;5057821;28;45804;-81
2021/08/29 05:43:38;;;;;;;;;9.67;9.00;;;;;;;;5065937;28;46611;-82
2021/08/29 05:46:04;;;;;;;;;12.00;11.33;;;;;;;;5062067;28;45502;-82
2021/08/29 05:48:29;;;;;;;;;13.50;12.25;;;;;;;;5061584;27;45522;-82
2021/08/29 05:50:54;;;;;;;;;11.33;11.00;;;;;;;;5066646;27;45293;-82
2021/08/29 05:53:19;;;;;;;;;14.00;13.00;;;;;;;;5052768;27;46954;-81
2021/08/29 05:55:45;;;;;;;;;15.75;11.75;;;;;;;;5063382;27;45535;-82
2021/08/29 05:58:10;;;;;;;;;16.33;12.00;;;;;;;;5063456;27;46034;-82
2021/08/29 06:00:36;;;;;;;;;13.25;11.00;;;;;;;;5060738;27;45332;-81
2021/08/29 06:03:01;;;;;;;;;10.25;10.25;;;;;;;;5065384;28;45597;-82
2021/08/29 06:05:27;;;;;;;;;14.50;12.50;;;;;;;;5060399;27;45601;-82
2021/08/29 06:07:53;;;;;;;;;14.75;12.75;;;;;;;;5062823;27;45388;-82
2021/08/29 06:10:18;;;;;;;;;14.67;12.00;;;;;;;;5064636;28;45615;-81
2021/08/29 06:12:45;;;;;;;;;14.33;12.00;;;;;;;;5042855;28;48153;-81
2021/08/29 06:15:10;;;;;;;;;16.75;13.50;;;;;;;;5066281;28;45581;-81
2021/08/29 06:17:36;;;;;;;;;18.25;15.00;;;;;;;;5042301;28;45808;-81
2021/08/29 06:20:02;;;;;;;;;16.50;13.00;;;;;;;;5061392;28;45539;-81
2021/08/29 06:22:27;;;;;;;;;14.00;13.00;;;;;;;;5048653;28;48165;-81
2021/08/29 06:24:52;;;;;;;;;17.00;13.00;;;;;;;;5028321;28;45690;-81
2021/08/29 06:27:17;;;;;;;;;19.67;14.67;;;;;;;;5062216;28;46159;-81
2021/08/29 06:29:43;;;;;;;;;19.50;15.00;;;;;;;;5064291;27;45603;-81
2021/08/29 06:32:08;;;;;;;;;14.75;14.25;;;;;;;;5027729;27;45659;-81
2021/08/29 06:34:33;;;;;;;;;18.00;12.00;;;;;;;;5065675;27;45492;-82
2021/08/29 06:36:58;;;;;;;;;15.25;12.50;;;;;;;;5039619;28;45671;-81
2021/08/29 06:39:24;;;;;;;;;13.33;13.33;;;;;;;;5060690;27;45795;-82
2021/08/29 06:41:49;;;;;;;;;15.33;12.33;;;;;;;;5047291;28;46663;-82
2021/08/29 06:44:14;;;;;;;;;14.00;11.67;;;;;;;;5059247;27;46024;-81
2021/08/29 06:46:39;;;;;;;;;14.33;10.33;;;;;;;;5046129;27;45604;-81
2021/08/29 06:49:04;;;;;;;;;12.25;10.00;;;;;;;;5061321;28;46134;-81
2021/08/29 06:51:30;;;;;;;;;12.25;9.50;;;;;;;;5059253;27;46173;-82
2021/08/29 06:53:55;;;;;;;;;7.75;7.75;;;;;;;;5045885;28;47614;-81
2021/08/29 06:56:20;;;;;;;;;14.00;10.00;;;;;;;;5060514;28;47445;-82
2021/08/29 06:58:45;;;;;;;;;13.00;10.33;;;;;;;;5063315;27;45476;-82
2021/08/29 07:01:11;;;;;;;;;9.75;8.00;;;;;;;;5062660;27;47005;-82
2021/08/29 07:03:36;;;;;;;;;6.25;5.75;;;;;;;;5041704;28;47205;-81
2021/08/29 07:06:04;;;;;;;;;7.50;6.00;;;;;;;;5046790;28;46490;-82
2021/08/29 07:08:29;;;;;;;;;9.50;6.25;;;;;;;;5061000;27;45616;-81
2021/08/29 07:10:55;;;;;;;;;8.00;7.00;;;;;;;;5041326;28;47983;-81
2021/08/29 07:13:20;;;;;;;;;8.00;7.33;;;;;;;;5047305;28;47385;-81
2021/08/29 07:15:45;;;;;;;;;7.67;6.67;;;;;;;;5043850;28;45627;-84
2021/08/29 07:18:10;;;;;;;;;7.67;6.00;;;;;;;;5048007;28;45548;-84
2021/08/29 07:20:36;;;;;;;;;7.00;6.00;;;;;;;;5062867;28;45732;-83
2021/08/29 07:23:01;;;;;;;;;11.33;6.33;;;;;;;;5062959;27;45484;-83
2021/08/29 07:25:27;;;;;;;;;7.33;7.00;;;;;;;;5068108;27;46445;-83
2021/08/29 07:27:52;;;;;;;;;8.25;6.50;;;;;;;;5064012;28;46337;-85
2021/08/29 07:30:17;;;;;;;;;16.25;9.00;;;;;;;;5065309;28;45710;-83
2021/08/29 07:32:43;;;;;;;;;8.33;7.33;;;;;;;;5066707;27;45439;-83
2021/08/29 07:35:08;;;;;;;;;8.00;8.00;;;;;;;;5063414;27;45628;-83
2021/08/29 07:37:33;;;;;;;;;8.75;8.00;;;;;;;;5066686;28;46561;-83
2021/08/29 07:39:59;;;;;;;;;12.33;10.67;;;;;;;;5032280;28;47355;-83
2021/08/29 07:42:24;;;;;;;;;13.25;10.00;;;;;;;;5045438;28;45549;-83
2021/08/29 07:44:49;;;;;;;;;18.00;11.00;;;;;;;;5067131;28;45518;-83
2021/08/29 07:47:15;;;;;;;;;16.00;11.00;;;;;;;;5045486;27;54534;-84
2021/08/29 07:49:40;;;;;;;;;13.50;10.50;;;;;;;;5048430;27;46910;-86
2021/08/29 07:52:05;;;;;;;;;19.00;14.00;;;;;;;;5061910;28;45569;-84
2021/08/29 07:54:30;;;;;;;;;15.50;12.75;;;;;;;;5061032;28;45539;-83
2021/08/29 07:56:56;;;;;;;;;18.00;13.67;;;;;;;;5067215;28;45457;-83
2021/08/29 07:59:21;;;;;;;;;17.33;15.00;;;;;;;;5048730;27;46437;-84
2021/08/29 08:01:46;;;;;;;;;21.67;15.33;;;;;;;;5065500;27;45739;-83
2021/08/29 08:04:11;;;;;;;;;19.33;14.67;;;;;;;;5065158;28;45698;-83
2021/08/29 08:06:36;;;;;;;;;13.67;12.00;;;;;;;;5059936;27;45481;-83
2021/08/29 08:09:02;;;;;;;;;18.00;14.00;;;;;;;;5067290;27;45831;-83
2021/08/29 08:11:27;;;;;;;;;17.75;13.25;;;;;;;;5060892;27;45544;-83
2021/08/29 08:13:53;;;;;;;;;20.25;15.75;;;;;;;;5063555;28;45644;-83
2021/08/29 08:16:18;;;;;;;;;17.75;15.25;;;;;;;;5067270;28;45501;-83
2021/08/29 08:18:43;;;;;;;;;17.00;13.33;;;;;;;;5063545;28;45541;-84
2021/08/29 08:21:08;;;;;;;;;18.00;17.33;;;;;;;;5067815;28;45638;-84
2021/08/29 08:23:34;;;;;;;;;18.00;14.50;;;;;;;;5062453;27;46898;-84
2021/08/29 08:25:59;;;;;;;;;18.50;13.25;;;;;;;;5063214;27;45521;-84
2021/08/29 08:28:24;;;;;;;;;12.67;12.67;;;;;;;;5066786;27;47699;-83
2021/08/29 08:30:49;;;;;;;;;15.00;13.25;;;;;;;;5062670;27;45660;-84
2021/08/29 08:33:15;;;;;;;;;18.33;14.00;;;;;;;;5066441;28;45712;-83
2021/08/29 08:35:40;;;;;;;;;20.75;14.75;;;;;;;;5052466;28;45628;-83
2021/08/29 08:38:05;;;;;;;;;19.00;14.25;;;;;;;;5061878;27;46527;-83
2021/08/29 08:40:37;;;;;;;;;14.00;13.00;;;;;;;;5065516;27;45611;-84
2021/08/29 08:43:02;;;;;;;;;13.00;12.25;;;;;;;;5063037;27;46218;-84
2021/08/29 08:45:28;;;;;;;;;13.67;11.67;;;;;;;;5062929;28;46213;-83
2021/08/29 08:47:54;;;;;;;;;11.75;10.50;;;;;;;;5066235;28;45862;-83
2021/08/29 08:50:19;;;;;;;;;19.00;13.00;;;;;;;;5045464;28;45651;-84
2021/08/29 08:52:45;;;;;;;;;11.50;11.25;;;;;;;;5065835;28;45610;-84
2021/08/29 08:55:11;;;;;;;;;15.50;11.50;;;;;;;;5064050;27;45479;-82
2021/08/29 08:57:38;;;;;;;;;14.75;12.00;;;;;;;;5060852;27;45684;-84
2021/08/29 09:00:03;;;;;;;;;13.00;12.25;;;;;;;;5066254;27;45227;-83
2021/08/29 09:02:28;;;;;;;;;15.75;14.00;;;;;;;;5062937;27;45556;-83
2021/08/29 09:04:54;;;;;;;;;11.67;11.00;;;;;;;;5063515;27;45509;-83
2021/08/29 09:07:19;;;;;;;;;17.67;11.67;;;;;;;;5047552;28;47333;-83
2021/08/29 09:09:44;;;;;;;;;16.00;13.25;;;;;;;;5049504;27;45718;-83
2021/08/29 09:12:10;;;;;;;;;16.00;13.00;;;;;;;;5045597;27;45530;-83
2021/08/29 09:14:43;;;;;;;;;14.00;10.25;;;;;;;;5062563;27;45643;-84
2021/08/29 09:17:29;;;;;;;;;16.25;13.25;;;;;;;;5043210;27;48115;-83
2021/08/29 09:20:16;;;;;;;;;13.50;13.25;;;;;;;;5062995;27;46074;-83
2021/08/29 09:22:42;;;;;;;;;9.00;9.00;;;;;;;;5066243;28;45724;-83
2021/08/29 09:25:15;;;;;;;;;11.00;9.25;;;;;;;;5061316;28;45631;-84
2021/08/29 09:27:45;;;;;;;;;10.25;8.25;;;;;;;;5061715;27;54172;-83
2021/08/29 09:30:11;;;;;;;;;12.00;9.25;;;;;;;;5046643;27;45773;-83
2021/08/29 09:32:45;;;;;;;;;10.00;8.00;;;;;;;;5062364;27;45591;-84
2021/08/29 09:35:10;;;;;;;;;15.00;10.00;;;;;;;;5044115;28;46250;-84
2021/08/29 09:37:36;;;;;;;;;9.00;9.00;;;;;;;;5065445;28;46148;-84
2021/08/29 09:40:21;;;;;;;;;11.00;8.00;;;;;;;;5063182;28;45625;-83
2021/08/29 09:42:47;;;;;;;;;10.00;9.50;;;;;;;;5043338;28;45899;-83
2021/08/29 09:45:29;;;;;;;;;9.50;9.25;;;;;;;;5048183;28;45584;-83
2021/08/29 09:48:05;;;;;;;;;11.00;11.00;;;;;;;;5047144;27;47472;-83
2021/08/29 09:50:31;;;;;;;;;11.25;9.00;;;;;;;;5061779;28;46134;-83
2021/08/29 09:53:02;;;;;;;;;9.50;7.50;;;;;;;;5061714;27;45766;-83
2021/08/29 09:55:33;;;;;;;;;8.75;8.75;;;;;;;;5065429;28;45656;-83
2021/08/29 09:57:59;;;;;;;;;10.25;7.75;;;;;;;;5061263;27;46447;-83
2021/08/29 10:00:24;;;;;;;;;7.00;7.00;;;;;;;;5056961;28;45480;-83
2021/08/29 10:03:03;;;;;;;;;10.25;8.75;;;;;;;;5065061;27;45554;-84
2021/08/29 10:05:29;;;;;;;;;9.00;9.00;;;;;;;;5060068;27;45541;-84
2021/08/29 10:07:55;;;;;;;;;8.50;8.50;;;;;;;;5059743;28;46454;-83
2021/08/29 10:10:21;;;;;;;;;9.00;9.00;;;;;;;;5062956;28;45603;-83
2021/08/29 10:12:47;;;;;;;;;7.00;7.00;;;;;;;;5059588;28;45461;-84
2021/08/29 10:15:13;;;;;;;;;7.25;6.00;;;;;;;;5066977;27;45478;-81
2021/08/29 10:17:40;;;;;;;;;9.75;7.00;;;;;;;;5061169;27;45620;-82
2021/08/29 10:20:06;;;;;;;;;9.00;7.00;;;;;;;;5060672;28;45672;-81
2021/08/29 10:22:33;;;;;;;;;9.25;9.00;;;;;;;;5062750;27;45685;-81
2021/08/29 10:24:59;;;;;;;;;9.00;9.00;;;;;;;;5060782;28;45658;-82
2021/08/29 10:27:25;;;;;;;;;7.00;7.00;;;;;;;;5060706;28;46618;-81
2021/08/29 10:29:51;;;;;;;;;11.00;8.75;;;;;;;;5054888;27;45789;-81
2021/08/29 10:32:21;;;;;;;;;9.00;9.00;;;;;;;;5061068;28;45534;-81
2021/08/29 10:34:46;;;;;;;;;9.75;9.50;;;;;;;;5063260;28;45588;-81
2021/08/29 10:37:13;;;;;;;;;7.00;7.00;;;;;;;;5061898;28;46329;-81
2021/08/29 10:39:38;;;;;;;;;10.50;9.50;;;;;;;;5046609;27;50715;-82
2021/08/29 10:42:04;;;;;;;;;7.50;7.00;;;;;;;;5064806;28;45590;-81
2021/08/29 10:44:30;;;;;;;;;8.00;6.00;;;;;;;;5061131;28;45582;-81
2021/08/29 10:46:55;;;;;;;;;11.00;8.25;;;;;;;;5061130;27;45564;-82
2021/08/29 10:49:22;;;;;;;;;10.50;8.25;;;;;;;;5063583;28;45471;-81
2021/08/29 10:51:49;;;;;;;;;8.50;7.50;;;;;;;;5059241;27;56489;-81
2021/08/29 10:54:15;;;;;;;;;12.50;10.00;;;;;;;;5070650;27;45585;-82
2021/08/29 10:56:41;;;;;;;;;11.75;10.00;;;;;;;;5068740;27;45741;-81
2021/08/29 10:59:06;;;;;;;;;10.00;8.25;;;;;;;;5065417;27;45651;-82
2021/08/29 11:01:44;;;;;;;;;9.33;8.00;;;;;;;;5073070;27;48026;-81
2021/08/29 11:04:19;;;;;;;;;10.50;10.50;;;;;;;;5065781;27;45730;-81
2021/08/29 11:06:45;;;;;;;;;12.00;9.75;;;;;;;;5065807;27;46353;-81
2021/08/29 11:09:29;;;;;;;;;8.00;8.00;;;;;;;;5071496;27;45608;-81
2021/08/29 11:11:55;;;;;;;;;12.00;10.25;;;;;;;;5053782;28;45652;-81
2021/08/29 11:14:39;;;;;;;;;8.25;7.50;;;;;;;;5068272;27;45527;-82
2021/08/29 11:17:11;;;;;;;;;9.00;7.25;;;;;;;;5066465;27;46313;-82
2021/08/29 11:19:43;;;;;;;;;11.00;10.00;;;;;;;;5069524;27;46026;-81
2021/08/29 11:22:08;;;;;;;;;9.25;8.00;;;;;;;;5064771;27;45610;-82
2021/08/29 11:25:00;;;;;;;;;8.50;8.50;;;;;;;;5067480;27;45458;-82
2021/08/29 11:27:34;;;;;;;;;9.50;9.50;;;;;;;;5059170;27;46664;-82
2021/08/29 11:30:00;;;;;;;;;8.00;8.00;;;;;;;;5072824;27;45645;-82
2021/08/29 11:32:31;;;;;;;;;11.75;9.50;;;;;;;;5065973;27;45585;-82
2021/08/29 11:35:03;;;;;;;;;10.25;8.75;;;;;;;;5067368;27;45545;-81
2021/08/29 11:37:28;;;;;;;;;11.00;9.00;;;;;;;;5071160;27;45593;-81
2021/08/29 11:40:00;;;;;;;;;11.25;9.50;;;;;;;;5066674;27;45635;-82
2021/08/29 11:42:27;;;;;;;;;8.00;6.75;;;;;;;;5066119;28;46298;-83
2021/08/29 11:44:53;;;;;;;;;8.00;7.00;;;;;;;;5066041;27;45611;-82
2021/08/29 11:47:19;;;;;;;;;12.00;8.75;;;;;;;;5069742;27;45501;-82
2021/08/29 11:49:51;;;;;;;;;8.75;8.75;;;;;;;;5074249;28;45380;-82
2021/08/29 11:52:25;;;;;;;;;6.25;6.25;;;;;;;;5065121;28;45654;-83
2021/08/29 11:55:01;;;;;;;;;11.25;8.00;;;;;;;;5068698;27;45514;-82
2021/08/29 11:57:27;;;;;;;;;7.75;7.75;;;;;;;;5064877;27;46116;-81
2021/08/29 12:00:04;;;;;;;;;6.33;6.33;;;;;;;;5071698;27;45524;-84
2021/08/29 12:08:51;;;;;;;;;8.25;7.00;;;;;;;;5036736;22;45723;-82
2021/08/29 12:11:17;;;;;;;;;8.67;6.00;;;;;;;;5014151;28;46076;-82
2021/08/29 12:13:42;;;;;;;;;5.75;5.75;;;;;;;;5040849;22;45536;-95
2021/08/29 12:16:08;;;;;;;;;7.75;7.75;;;;;;;;5017510;28;45705;-95
2021/08/29 12:18:37;;;;;;;;;6.50;4.25;;;;;;;;5016250;28;46459;-96
2021/08/29 12:21:07;;;;;;;;;8.75;6.00;;;;;;;;5011451;28;45509;-96
2021/08/29 12:23:33;;;;;;;;;7.50;7.50;;;;;;;;5015416;28;45391;-94
2021/08/29 12:25:59;;;;;;;;;6.00;5.25;;;;;;;;5098884;23;47133;-86
2021/08/29 12:28:25;;;;;;;;;7.25;6.00;;;;;;;;5044965;28;46157;-86
2021/08/29 12:30:55;;;;;;;;;7.00;6.00;;;;;;;;5038361;28;45512;-85
2021/08/29 12:33:21;;;;;;;;;6.25;6.00;;;;;;;;5035486;28;45646;-86
2021/08/29 12:35:47;;;;;;;;;7.00;4.75;;;;;;;;5037416;28;45979;-84
2021/08/29 12:38:21;;;;;;;;;9.00;6.25;;;;;;;;5023949;28;47265;-86
2021/08/29 12:40:47;;;;;;;;;5.25;5.25;;;;;;;;5030464;28;45807;-84
2021/08/29 12:43:12;;;;;;;;;6.00;5.00;;;;;;;;5041406;28;45543;-86
2021/08/29 12:45:38;;;;;;;;;5.25;5.00;;;;;;;;5030402;28;45576;-86
2021/08/29 12:48:03;;;;;;;;;5.75;5.50;;;;;;;;5022383;28;46980;-86
2021/08/29 12:50:29;;;;;;;;;5.25;4.50;;;;;;;;5036707;28;46045;-85
2021/08/29 12:53:05;;;;;;;;;4.00;4.00;;;;;;;;5036688;28;48388;-87
2021/08/29 12:55:31;;;;;;;;;6.75;6.75;;;;;;;;5038594;28;45847;-85
2021/08/29 12:57:57;;;;;;;;;4.50;4.00;;;;;;;;5027708;28;53449;-85
2021/08/29 13:00:22;;;;;;;;;4.75;4.75;;;;;;;;5041931;28;45665;-84
2021/08/29 13:02:48;;;;;;;;;5.50;3.50;;;;;;;;5032445;28;46166;-86
2021/08/29 13:05:13;;;;;;;;;3.75;3.75;;;;;;;;5034697;28;45535;-86
2021/08/29 13:07:45;;;;;;;;;6.50;6.50;;;;;;;;5018776;28;47366;-84
2021/08/29 13:10:11;;;;;;;;;5.50;5.50;;;;;;;;5017340;28;45846;-86
2021/08/29 13:12:38;;;;;;;;;5.50;4.25;;;;;;;;5038562;28;45698;-87
2021/08/29 13:15:05;;;;;;;;;5.50;5.25;;;;;;;;5013805;28;45537;-87
2021/08/29 13:17:30;;;;;;;;;7.00;7.00;;;;;;;;5039091;28;45544;-82
2021/08/29 13:19:59;;;;;;;;;7.25;7.25;;;;;;;;5023183;28;45445;-82
2021/08/29 13:22:25;;;;;;;;;5.25;5.25;;;;;;;;5043825;28;45573;-83
2021/08/29 13:24:51;;;;;;;;;6.75;6.75;;;;;;;;5037282;28;45501;-82
2021/08/29 13:27:17;;;;;;;;;6.25;6.00;;;;;;;;5022008;28;46596;-82
2021/08/29 13:29:42;;;;;;;;;7.50;5.50;;;;;;;;5009748;28;45554;-82
2021/08/29 13:32:08;;;;;;;;;10.50;7.00;;;;;;;;5008406;28;45551;-82
2021/08/29 13:34:34;;;;;;;;;9.75;7.00;;;;;;;;5010676;28;45589;-82
2021/08/29 13:37:00;;;;;;;;;6.75;6.25;;;;;;;;5016867;28;45734;-82
2021/08/29 13:39:26;;;;;;;;;7.00;7.00;;;;;;;;5011247;28;45646;-83
2021/08/29 13:46:36;;;;;;;;;12.00;8.00;;;;;60.32;94.97;100713.59;5093764;27;45310;-81
2021/08/29 13:49:02;;;;;;;;;9.00;8.25;;;;;56.85;88.88;101052.16;5098080;27;45641;-83
2021/08/29 13:51:28;;;;;;;;;12.50;9.75;;;;;57.96;85.74;101328.81;5068335;27;46329;-84
2021/08/29 13:53:55;;;;;;;;;9.75;7.50;;;;;58.38;85.49;101162.59;5067155;27;45341;-83
2021/08/29 13:56:22;;;;;;;;;9.50;7.75;;;;;50.72;100.00;101645.44;5062496;27;45608;-83
2021/08/29 13:58:48;;;;;;;;;9.75;8.00;;;;;39.83;100.00;101799.25;5064848;27;49947;-83
2021/08/29 14:01:13;;;;;;;;;9.25;8.75;;;;;35.75;100.00;101832.78;5066055;27;45614;-83
2021/08/29 14:03:39;;;;;;;;;9.50;7.25;;;;;33.65;100.00;101719.44;5062392;27;45616;-82
2021/08/29 14:06:04;;;;;;;;;7.75;7.75;;;;;-147.91;100.00;58652.34;5066732;27;45425;-83
2021/08/29 14:08:34;;;;;;;;;10.25;9.25;;;;;-147.91;100.00;58652.34;5077483;27;45665;-83
2021/08/29 14:10:59;;;;;;;;;9.00;8.25;;;;;-147.91;100.00;58652.34;5063512;27;45583;-83
2021/08/29 14:13:25;;;;;;;;;9.50;9.50;;;;;-147.91;100.00;58652.34;5067731;27;46329;-83
2021/08/29 14:15:52;;;;;;;;;9.25;8.25;;;;;-147.91;100.00;58652.34;5064029;27;48274;-87
2021/08/29 14:18:17;;;;;;;;;11.00;9.25;;;;;-147.91;100.00;58652.34;5070515;27;45653;-86
2021/08/29 14:20:44;;;;;;;;;9.00;9.00;;;;;-147.91;100.00;58652.34;5064870;27;45905;-86
2021/08/29 14:23:09;;;;;;;;;9.00;7.75;;;;;-147.91;100.00;58652.34;5094658;27;48592;-86
2021/08/29 14:25:35;;;;;;;;;8.50;8.00;;;;;-147.91;100.00;58652.34;5065135;27;46203;-86
2021/08/29 14:28:00;;;;;;;;;9.00;9.00;;;;;-147.91;100.00;58652.34;5065802;27;45979;-87